ACA7677 CYYT-CYHZ
Flight info
| Callsign | ACA7677 |
|---|---|
| Flight time | N/A |
| Altitude | 36000 |
| Route | TEXED DCT SILRO DCT CAYLY CABOT5 |
| Aircraft | B738/M-SDE2E3FGHIRWXY/LB1 |
Departure
| Time | 2026-04-27 22:25 |
|---|---|
| Airport | St. John's International Airport (CYYT) |
Arrival
| Time | N/A |
|---|---|
| Airport | Halifax / Stanfield International Airport (CYHZ) |
| Time | Latitude | Longitude | Altitude | Speed | Heading |
|---|---|---|---|---|---|
| 2026-04-27 21:57 | 47.61377 | -52.74256 | 449 ft | 0 kts | 207° |
| 2026-04-27 22:18 | 47.61390 | -52.74246 | 441 ft | 4 kts | 208° |
| 2026-04-27 22:18 | 47.61411 | -52.74227 | 448 ft | 3 kts | 200° |
| 2026-04-27 22:18 | 47.61432 | -52.74218 | 448 ft | 4 kts | 187° |
| 2026-04-27 22:18 | 47.61454 | -52.74216 | 448 ft | 0 kts | 183° |
| 2026-04-27 22:22 | 47.61452 | -52.74216 | 448 ft | 2 kts | 180° |
| 2026-04-27 22:23 | 47.61412 | -52.74144 | 448 ft | 15 kts | 113° |
| 2026-04-27 22:23 | 47.61367 | -52.74006 | 449 ft | 15 kts | 130° |
| 2026-04-27 22:23 | 47.61281 | -52.73936 | 451 ft | 14 kts | 133° |
| 2026-04-27 22:23 | 47.61246 | -52.73834 | 451 ft | 10 kts | 116° |
| 2026-04-27 22:24 | 47.61209 | -52.73730 | 450 ft | 15 kts | 118° |
| 2026-04-27 22:24 | 47.61166 | -52.73615 | 436 ft | 4 kts | 119° |
| 2026-04-27 22:24 | 47.61144 | -52.73555 | 436 ft | 14 kts | 118° |
| 2026-04-27 22:24 | 47.61138 | -52.73389 | 436 ft | 15 kts | 31° |
| 2026-04-27 22:25 | 47.61227 | -52.73448 | 439 ft | 33 kts | 320° |
| 2026-04-27 22:25 | 47.61622 | -52.73951 | 448 ft | 114 kts | 320° |
| 2026-04-27 22:25 | 47.62379 | -52.74953 | 674 ft | 163 kts | 323° |
| 2026-04-27 22:25 | 47.63191 | -52.76115 | 2035 ft | 164 kts | 320° |
| 2026-04-27 22:26 | 47.63982 | -52.77359 | 3032 ft | 173 kts | 319° |
| 2026-04-27 22:26 | 47.64644 | -52.79024 | 3354 ft | 209 kts | 291° |
| 2026-04-27 22:26 | 47.64664 | -52.81332 | 3736 ft | 235 kts | 270° |
| 2026-04-27 22:26 | 47.64477 | -52.83772 | 4340 ft | 239 kts | 272° |
| 2026-04-27 22:27 | 47.64312 | -52.86315 | 4706 ft | 258 kts | 271° |
| 2026-04-27 22:27 | 47.64123 | -52.89011 | 5443 ft | 266 kts | 271° |
| 2026-04-27 22:27 | 47.63931 | -52.91751 | 6420 ft | 267 kts | 270° |
| 2026-04-27 22:27 | 47.63734 | -52.94520 | 7209 ft | 274 kts | 270° |
| 2026-04-27 22:28 | 47.63534 | -52.97344 | 8048 ft | 276 kts | 270° |
| 2026-04-27 22:28 | 47.63329 | -53.00197 | 8903 ft | 280 kts | 270° |
| 2026-04-27 22:28 | 47.63123 | -53.03077 | 9747 ft | 283 kts | 270° |
| 2026-04-27 22:28 | 47.62916 | -53.06009 | 10450 ft | 292 kts | 270° |
| 2026-04-27 22:29 | 47.62701 | -53.09137 | 10655 ft | 318 kts | 270° |
| 2026-04-27 22:29 | 47.62471 | -53.12468 | 10837 ft | 340 kts | 269° |
| 2026-04-27 22:29 | 47.62217 | -53.16037 | 11246 ft | 354 kts | 269° |
| 2026-04-27 22:29 | 47.61947 | -53.19696 | 11911 ft | 359 kts | 269° |
| 2026-04-27 22:30 | 47.61672 | -53.23399 | 12688 ft | 362 kts | 269° |